createdAt,value
2022-11-16T00:01:40.801Z,6.55
2022-11-16T00:04:09.810Z,6.47
2022-11-16T00:06:36.608Z,6.13
2022-11-16T00:09:22.498Z,6.60
2022-11-16T00:11:51.670Z,5.40
2022-11-16T00:14:20.205Z,5.43
2022-11-16T00:16:47.085Z,6.40
2022-11-16T00:19:13.926Z,6.72
2022-11-16T00:21:40.916Z,6.45
2022-11-16T00:24:07.765Z,6.47
2022-11-16T00:26:34.614Z,6.32
2022-11-16T00:29:01.446Z,6.80
2022-11-16T00:31:28.350Z,6.18
2022-11-16T00:33:55.276Z,6.40
2022-11-16T00:36:22.098Z,6.60
2022-11-16T00:38:56.305Z,6.63
2022-11-16T00:41:23.343Z,6.72
2022-11-16T00:43:50.179Z,6.15
2022-11-16T00:46:16.991Z,6.38
2022-11-16T00:48:43.795Z,6.07
2022-11-16T00:51:10.850Z,6.00
2022-11-16T00:53:37.818Z,6.38
2022-11-16T00:56:05.231Z,6.13
2022-11-16T00:58:32.298Z,7.13
2022-11-16T01:01:08.124Z,7.33
2022-11-16T01:03:36.206Z,6.72
2022-11-16T01:06:05.811Z,6.82
2022-11-16T01:08:33.951Z,6.38
2022-11-16T01:11:20.980Z,7.30
2022-11-16T01:13:48.284Z,6.93
2022-11-16T01:16:19.903Z,6.63
2022-11-16T01:18:52.176Z,6.88
2022-11-16T01:21:19.792Z,6.82
2022-11-16T01:23:46.686Z,6.53
2022-11-16T01:26:13.787Z,6.77
2022-11-16T01:28:40.732Z,6.80
2022-11-16T01:31:09.342Z,6.53
2022-11-16T01:33:36.656Z,6.38
2022-11-16T01:36:08.310Z,6.45
2022-11-16T01:38:35.599Z,6.23
2022-11-16T01:41:02.947Z,6.20
2022-11-16T01:43:29.727Z,6.28
2022-11-16T01:45:56.507Z,6.55
2022-11-16T01:48:27.957Z,6.60
2022-11-16T01:50:57.763Z,6.77
2022-11-16T01:53:25.123Z,7.18
2022-11-16T01:55:53.052Z,6.50
2022-11-16T01:58:23.382Z,7.05
2022-11-16T02:00:50.711Z,6.45
2022-11-16T02:03:19.343Z,6.50
2022-11-16T02:05:54.792Z,6.30
2022-11-16T02:09:29.954Z,6.30
2022-11-16T02:12:02.049Z,6.50
2022-11-16T02:14:47.547Z,6.75
2022-11-16T02:17:32.847Z,6.37
2022-11-16T02:20:18.251Z,6.03
2022-11-16T02:22:57.202Z,5.55
2022-11-16T02:25:52.651Z,6.22
2022-11-16T02:28:52.603Z,5.60
2022-11-16T02:31:29.969Z,5.70
2022-11-16T02:33:58.057Z,6.05
2022-11-16T02:36:25.872Z,5.53
2022-11-16T02:39:02.863Z,6.05
2022-11-16T02:41:34.028Z,5.57
2022-11-16T02:44:06.832Z,5.60
2022-11-16T02:46:38.457Z,5.57
2022-11-16T02:49:10.711Z,5.40
2022-11-16T02:51:40.097Z,5.45
2022-11-16T02:54:19.629Z,5.32
2022-11-16T02:57:04.639Z,5.70
2022-11-16T02:59:38.359Z,5.13
2022-11-16T03:02:38.370Z,5.55
2022-11-16T03:05:13.370Z,5.90
2022-11-16T03:07:47.141Z,5.50
2022-11-16T03:10:36.004Z,5.40
2022-11-16T03:13:03.866Z,5.63
2022-11-16T03:15:30.708Z,5.60
2022-11-16T03:18:00.386Z,5.47
2022-11-16T03:20:30.049Z,5.32
2022-11-16T03:23:04.056Z,5.10
2022-11-16T03:25:38.969Z,5.13
2022-11-16T03:28:27.638Z,4.60
2022-11-16T03:31:15.175Z,5.30
2022-11-16T03:33:48.287Z,5.35
2022-11-16T03:36:21.670Z,5.20
2022-11-16T03:38:51.134Z,4.70
2022-11-16T03:41:20.690Z,4.95
2022-11-16T03:43:49.496Z,5.25
2022-11-16T03:46:18.043Z,5.18
2022-11-16T03:48:44.808Z,5.53
2022-11-16T03:51:12.454Z,5.63
2022-11-16T03:53:39.535Z,5.85
2022-11-16T03:56:06.585Z,5.55
2022-11-16T03:58:33.787Z,5.07
2022-11-16T04:01:01.155Z,5.67
2022-11-16T04:03:28.038Z,5.47
2022-11-16T04:06:24.299Z,5.35
2022-11-16T04:09:09.935Z,5.38
2022-11-16T04:11:56.009Z,4.75
2022-11-16T04:14:44.016Z,4.27
2022-11-16T04:17:34.186Z,4.45
2022-11-16T04:20:19.812Z,4.22
2022-11-16T04:23:20.941Z,4.35
2022-11-16T04:25:50.471Z,4.05
2022-11-16T04:28:22.733Z,3.80
2022-11-16T04:31:11.157Z,4.00
2022-11-16T04:33:57.133Z,4.20
2022-11-16T04:36:42.709Z,4.15
2022-11-16T04:39:09.554Z,3.85
2022-11-16T04:41:55.831Z,3.40
2022-11-16T04:44:27.287Z,2.83
2022-11-16T04:47:08.501Z,3.05
2022-11-16T04:49:35.327Z,3.10
2022-11-16T04:52:02.111Z,2.92
2022-11-16T04:54:29.145Z,2.67
2022-11-16T04:56:55.938Z,3.30
2022-11-16T04:59:22.803Z,3.17
2022-11-16T05:02:07.952Z,2.90
2022-11-16T05:04:42.893Z,3.38
2022-11-16T05:07:12.461Z,3.20
2022-11-16T05:09:43.066Z,3.30
2022-11-16T05:12:18.851Z,3.20
2022-11-16T05:14:46.274Z,2.95
2022-11-16T05:17:13.919Z,2.95
2022-11-16T05:19:59.009Z,2.83
2022-11-16T05:22:25.812Z,3.00
2022-11-16T05:24:52.991Z,3.20
2022-11-16T05:27:21.736Z,2.90
2022-11-16T05:29:51.811Z,2.83
2022-11-16T05:32:20.508Z,3.17
2022-11-16T05:34:47.606Z,3.22
2022-11-16T05:37:15.438Z,3.15
2022-11-16T05:39:42.642Z,3.30
2022-11-16T05:42:09.814Z,3.47
2022-11-16T05:44:36.639Z,3.33
2022-11-16T05:47:03.492Z,2.80
2022-11-16T05:49:30.465Z,2.97
2022-11-16T05:51:57.641Z,3.38
2022-11-16T05:54:26.373Z,3.50
2022-11-16T05:56:55.189Z,3.17
2022-11-16T05:59:23.632Z,3.92
2022-11-16T06:01:50.960Z,4.03
2022-11-16T06:04:24.641Z,3.42
2022-11-16T06:06:52.243Z,3.60
2022-11-16T06:09:19.478Z,4.33
2022-11-16T06:11:46.243Z,4.57
2022-11-16T06:14:13.135Z,4.78
2022-11-16T06:16:39.909Z,5.00
2022-11-16T06:19:06.778Z,5.47
2022-11-16T06:21:33.909Z,5.40
2022-11-16T06:24:02.811Z,6.30
2022-11-16T06:26:29.686Z,5.90
2022-11-16T06:28:56.531Z,6.13
2022-11-16T06:31:23.450Z,6.03
2022-11-16T06:33:50.270Z,6.00
2022-11-16T06:36:17.214Z,5.35
2022-11-16T06:38:43.946Z,5.78
2022-11-16T06:41:10.763Z,6.40
2022-11-16T06:43:37.608Z,6.00
2022-11-16T06:46:04.570Z,6.23
2022-11-16T06:48:31.891Z,6.35
2022-11-16T06:50:59.099Z,6.55
2022-11-16T06:53:29.237Z,6.50
2022-11-16T06:56:01.656Z,5.50
2022-11-16T06:58:30.728Z,6.37
2022-11-16T07:00:58.882Z,6.03
2022-11-16T07:03:25.650Z,6.32
2022-11-16T07:05:52.516Z,6.90
2022-11-16T07:08:19.562Z,5.88
2022-11-16T07:10:46.566Z,5.63
2022-11-16T07:13:13.405Z,5.35
2022-11-16T07:15:40.364Z,4.80
2022-11-16T07:18:08.349Z,4.57
2022-11-16T07:20:35.226Z,5.13
2022-11-16T07:23:03.709Z,4.50
2022-11-16T07:25:32.613Z,4.93
2022-11-16T07:27:59.573Z,4.38
2022-11-16T07:30:27.214Z,4.40
2022-11-16T07:33:00.591Z,3.90
2022-11-16T07:35:27.448Z,3.87
2022-11-16T07:37:54.334Z,3.97
2022-11-16T07:40:21.403Z,3.90
2022-11-16T07:42:48.546Z,4.30
2022-11-16T07:45:15.664Z,4.05
2022-11-16T07:47:42.536Z,3.40
2022-11-16T07:50:11.108Z,3.35
2022-11-16T07:52:38.353Z,3.30
2022-11-16T07:55:06.132Z,3.50
2022-11-16T07:57:33.056Z,2.65
2022-11-16T08:00:00.103Z,2.77
2022-11-16T08:02:26.943Z,2.67
2022-11-16T08:04:54.229Z,2.40
2022-11-16T08:07:21.205Z,2.20
2022-11-16T08:09:48.610Z,2.10
2022-11-16T08:12:16.101Z,1.60
2022-11-16T08:14:43.041Z,1.80
2022-11-16T08:17:09.859Z,1.80
2022-11-16T08:19:36.858Z,1.88
2022-11-16T08:22:03.918Z,1.60
2022-11-16T08:24:31.229Z,1.40
2022-11-16T08:26:58.984Z,1.80
2022-11-16T08:29:26.634Z,1.95
2022-11-16T08:31:53.598Z,1.30
2022-11-16T08:34:20.720Z,1.88
2022-11-16T08:36:47.870Z,1.70
2022-11-16T08:39:14.839Z,2.13
2022-11-16T08:41:42.468Z,2.58
2022-11-16T08:44:09.419Z,2.58
2022-11-16T08:46:36.405Z,2.40
2022-11-16T08:49:03.323Z,2.10
2022-11-16T08:51:30.362Z,2.08
2022-11-16T08:53:58.925Z,2.38
2022-11-16T08:56:30.455Z,2.50
2022-11-16T08:58:59.226Z,2.47
2022-11-16T09:01:29.123Z,2.07
2022-11-16T09:03:56.812Z,2.03
2022-11-16T09:06:25.792Z,2.03
2022-11-16T09:08:53.075Z,2.10
2022-11-16T09:11:22.316Z,2.10
2022-11-16T09:13:51.943Z,1.77
2022-11-16T09:16:21.155Z,2.13
2022-11-16T09:18:51.640Z,2.13
2022-11-16T09:21:29.444Z,2.08
2022-11-16T09:23:57.629Z,2.10
2022-11-16T09:26:25.616Z,1.93
2022-11-16T09:28:58.411Z,2.00
2022-11-16T09:31:31.275Z,1.55
2022-11-16T09:33:59.102Z,1.70
2022-11-16T09:36:27.938Z,1.73
2022-11-16T09:39:23.848Z,1.60
2022-11-16T09:41:47.809Z,1.40
2022-11-16T09:44:59.768Z,1.63
2022-11-16T09:47:50.701Z,1.80
2022-11-16T09:50:43.683Z,1.70
2022-11-16T09:53:25.957Z,1.67
2022-11-16T09:56:04.556Z,1.13
2022-11-16T09:58:56.254Z,1.70
2022-11-16T10:01:26.608Z,1.60
2022-11-16T10:04:02.980Z,1.60
2022-11-16T10:06:41.907Z,1.43
2022-11-16T10:09:12.715Z,1.80
2022-11-16T10:11:45.504Z,1.75
2022-11-16T10:14:25.001Z,1.50
2022-11-16T10:17:02.098Z,1.27
2022-11-16T10:19:50.462Z,1.90
2022-11-16T10:22:42.003Z,1.20
2022-11-16T10:25:24.729Z,1.20
2022-11-16T10:28:20.406Z,1.27
2022-11-16T10:31:18.226Z,1.02
2022-11-16T10:33:49.448Z,1.07
2022-11-16T10:36:16.857Z,1.70
2022-11-16T10:38:44.605Z,0.90
2022-11-16T10:41:31.858Z,1.10
2022-11-16T10:43:59.883Z,1.05
2022-11-16T10:46:40.497Z,1.33
2022-11-16T10:49:16.706Z,1.40
2022-11-16T10:51:43.646Z,1.05
2022-11-16T10:54:14.537Z,1.10
2022-11-16T10:56:45.639Z,0.93
2022-11-16T10:59:14.299Z,1.77
2022-11-16T11:01:43.877Z,1.08
2022-11-16T11:04:22.242Z,1.50
2022-11-16T11:06:57.620Z,0.93
2022-11-16T11:09:33.100Z,0.93
2022-11-16T11:12:34.773Z,1.50
2022-11-16T11:15:07.477Z,1.15
2022-11-16T11:17:36.199Z,1.25
2022-11-16T11:20:14.965Z,0.98
2022-11-16T11:22:58.346Z,1.58
2022-11-16T11:25:32.604Z,1.17
2022-11-16T11:28:17.175Z,1.70
2022-11-16T11:31:09.548Z,1.58
2022-11-16T11:33:39.986Z,1.20
2022-11-16T11:36:18.936Z,0.93
2022-11-16T11:39:07.517Z,1.20
2022-11-16T11:41:38.270Z,0.93
2022-11-16T11:44:15.605Z,1.27
2022-11-16T11:49:50.274Z,0.73
2022-11-16T11:52:25.241Z,0.83
2022-11-16T11:54:54.652Z,1.00
2022-11-16T11:57:24.065Z,0.70
2022-11-16T11:59:53.847Z,0.60
2022-11-16T12:02:36.256Z,1.02
2022-11-16T12:05:57.812Z,1.10
2022-11-16T12:08:43.167Z,0.68
2022-11-16T12:11:21.944Z,1.08
2022-11-16T12:14:01.765Z,0.80
2022-11-16T12:16:50.203Z,1.10
2022-11-16T12:19:25.911Z,1.00
2022-11-16T12:22:01.594Z,1.48
2022-11-16T12:24:52.855Z,1.15
2022-11-16T12:27:28.540Z,1.10
2022-11-16T12:29:58.382Z,2.10
2022-11-16T12:32:53.449Z,1.17
2022-11-16T12:35:52.126Z,0.90
2022-11-16T12:38:39.537Z,1.08
2022-11-16T12:41:31.726Z,1.00
2022-11-16T12:44:05.124Z,0.82
2022-11-16T12:47:09.224Z,0.80
2022-11-16T12:50:12.526Z,1.13
2022-11-16T12:53:21.079Z,0.75
2022-11-16T12:56:02.799Z,0.65
2022-11-16T12:58:38.884Z,0.60
2022-11-16T13:01:35.879Z,1.00
2022-11-16T13:04:11.379Z,0.75
2022-11-16T13:07:13.859Z,1.05
2022-11-16T13:09:48.273Z,0.80
2022-11-16T13:12:23.645Z,1.00
2022-11-16T13:14:53.884Z,0.60
2022-11-16T13:17:37.283Z,0.52
2022-11-16T13:20:28.067Z,0.52
2022-11-16T13:22:59.162Z,0.50
2022-11-16T13:25:40.485Z,1.23
2022-11-16T13:28:35.588Z,0.40
2022-11-16T13:31:11.968Z,0.63
2022-11-16T13:33:52.777Z,0.40
2022-11-16T13:36:40.715Z,0.43
2022-11-16T13:39:08.733Z,0.90
2022-11-16T13:41:38.565Z,0.57
2022-11-16T13:44:32.036Z,0.65
2022-11-16T13:47:19.094Z,0.73
2022-11-16T13:49:57.813Z,0.55
2022-11-16T13:53:28.401Z,0.45
2022-11-16T13:55:54.601Z,0.60
2022-11-16T13:58:23.741Z,0.55
2022-11-16T14:01:08.310Z,0.40
2022-11-16T14:03:59.541Z,0.80
2022-11-16T14:06:29.387Z,0.77
2022-11-16T14:08:57.746Z,0.50
2022-11-16T14:11:30.554Z,0.93
2022-11-16T14:14:01.143Z,0.85
2022-11-16T14:16:29.256Z,0.60
2022-11-16T14:18:59.419Z,0.85
2022-11-16T14:21:26.967Z,0.70
2022-11-16T14:24:15.018Z,0.50
2022-11-16T14:26:48.067Z,0.60
2022-11-16T14:29:51.971Z,0.90
2022-11-16T14:32:26.565Z,0.70
2022-11-16T14:34:57.164Z,0.60
2022-11-16T14:37:28.452Z,0.60
2022-11-16T14:40:05.745Z,0.40
2022-11-16T14:42:48.364Z,0.60
2022-11-16T14:45:31.425Z,1.00
2022-11-16T14:48:06.843Z,0.70
2022-11-16T14:50:40.644Z,0.88
2022-11-16T14:53:12.547Z,0.60
2022-11-16T14:55:44.322Z,0.60
2022-11-16T14:58:13.969Z,0.88
2022-11-16T15:00:40.911Z,0.50
2022-11-16T15:03:12.342Z,0.82
2022-11-16T15:05:39.756Z,0.50
2022-11-16T15:08:28.614Z,0.80
2022-11-16T15:10:56.977Z,0.60
2022-11-16T15:13:25.488Z,0.60
2022-11-16T15:16:09.952Z,1.00
2022-11-16T15:18:36.921Z,0.90
2022-11-16T15:21:03.943Z,1.10
2022-11-16T15:23:31.087Z,0.75
2022-11-16T15:26:00.534Z,1.10
2022-11-16T15:28:30.595Z,1.10
2022-11-16T15:31:00.962Z,1.00
2022-11-16T15:33:36.017Z,1.38
2022-11-16T15:36:31.558Z,0.98
2022-11-16T15:39:01.142Z,1.00
2022-11-16T15:41:29.514Z,1.00
2022-11-16T15:44:14.138Z,1.33
2022-11-16T15:46:43.329Z,0.80
2022-11-16T15:49:25.261Z,1.45
2022-11-16T15:51:52.442Z,1.70
2022-11-16T15:54:56.312Z,1.30
2022-11-16T15:57:24.975Z,1.25
2022-11-16T15:59:57.481Z,1.40
2022-11-16T16:02:30.258Z,1.30
2022-11-16T16:04:57.381Z,1.43
2022-11-16T16:07:41.236Z,2.00
2022-11-16T16:10:20.153Z,3.50
2022-11-16T16:12:59.251Z,3.53
2022-11-16T16:15:30.515Z,4.05
2022-11-16T16:17:59.012Z,3.67
2022-11-16T16:20:29.779Z,1.85
2022-11-16T16:23:09.329Z,2.03
2022-11-16T16:25:37.189Z,1.73
2022-11-16T16:28:04.585Z,2.20
2022-11-16T16:30:33.258Z,1.57
2022-11-16T16:33:00.765Z,2.45
2022-11-16T16:35:28.034Z,3.90
2022-11-16T16:38:01.008Z,2.90
2022-11-16T16:40:29.087Z,2.60
2022-11-16T16:42:56.664Z,2.33
2022-11-16T16:45:38.911Z,2.80
2022-11-16T16:48:06.451Z,2.70
2022-11-16T16:50:33.486Z,2.10
2022-11-16T16:53:00.638Z,3.00
2022-11-16T16:55:28.939Z,2.30
2022-11-16T16:57:58.376Z,2.88
2022-11-16T17:00:26.054Z,2.65
2022-11-16T17:02:53.042Z,2.05
2022-11-16T17:05:20.328Z,1.88
2022-11-16T17:07:47.196Z,2.27
2022-11-16T17:10:13.971Z,2.00
2022-11-16T17:12:40.789Z,1.77
2022-11-16T17:15:08.430Z,1.83
2022-11-16T17:17:37.392Z,2.10
2022-11-16T17:20:06.302Z,2.23
2022-11-16T17:22:34.444Z,1.60
2022-11-16T17:25:01.323Z,2.08
2022-11-16T17:27:28.032Z,1.90
2022-11-16T17:29:55.069Z,1.80
2022-11-16T17:32:24.709Z,2.07
2022-11-16T17:34:51.654Z,2.20
2022-11-16T17:37:18.619Z,2.28
2022-11-16T17:39:45.588Z,2.30
2022-11-16T17:42:12.575Z,1.67
2022-11-16T17:44:39.385Z,2.27
2022-11-16T17:47:07.602Z,2.22
2022-11-16T17:49:34.517Z,2.00
2022-11-16T17:52:01.977Z,2.35
2022-11-16T17:54:28.771Z,2.40
2022-11-16T17:56:55.827Z,2.33
2022-11-16T17:59:26.518Z,3.15
2022-11-16T18:01:57.840Z,2.55
2022-11-16T18:04:24.827Z,2.75
2022-11-16T18:06:51.712Z,2.47
2022-11-16T18:09:19.015Z,1.87
2022-11-16T18:11:46.299Z,2.97
2022-11-16T18:14:13.331Z,2.08
2022-11-16T18:16:44.541Z,1.90
2022-11-16T18:19:17.097Z,2.20
2022-11-16T18:21:44.705Z,1.93
2022-11-16T18:24:12.343Z,1.80
2022-11-16T18:26:40.739Z,5.97
2022-11-16T18:29:12.329Z,5.55
2022-11-16T18:31:39.402Z,9.85
2022-11-16T18:34:06.313Z,9.10
2022-11-16T18:36:33.354Z,6.10
2022-11-16T18:39:00.593Z,3.58
2022-11-16T18:41:29.996Z,2.67
2022-11-16T18:43:59.405Z,2.15
2022-11-16T18:46:29.618Z,2.00
2022-11-16T18:48:57.207Z,2.47
2022-11-16T18:51:26.428Z,2.58
2022-11-16T18:53:53.977Z,2.10
2022-11-16T18:56:21.625Z,11.90
2022-11-16T18:58:51.508Z,3.00
2022-11-16T19:01:22.148Z,5.38
2022-11-16T19:03:49.451Z,3.47
2022-11-16T19:06:18.105Z,4.57
2022-11-16T19:08:50.490Z,4.05
2022-11-16T19:11:23.553Z,4.60
2022-11-16T19:13:54.233Z,1.98
2022-11-16T19:16:21.880Z,5.88
2022-11-16T19:18:48.854Z,3.08
2022-11-16T19:21:18.770Z,2.40
2022-11-16T19:23:48.309Z,2.10
2022-11-16T19:26:16.991Z,1.70
2022-11-16T19:28:48.548Z,1.52
2022-11-16T19:31:19.290Z,2.55
2022-11-16T19:33:46.443Z,2.08
2022-11-16T19:36:15.996Z,1.63
2022-11-16T19:38:43.616Z,3.47
2022-11-16T19:41:12.127Z,1.95
2022-11-16T19:43:39.195Z,1.90
2022-11-16T19:46:11.320Z,1.40
2022-11-16T19:48:38.959Z,1.50
2022-11-16T19:51:06.016Z,1.40
2022-11-16T19:53:33.319Z,1.33
2022-11-16T19:56:00.850Z,1.63
2022-11-16T19:58:28.298Z,1.63
2022-11-16T20:01:10.369Z,2.50
2022-11-16T20:03:38.677Z,1.95
2022-11-16T20:06:11.207Z,1.55
2022-11-16T20:08:39.630Z,1.73
2022-11-16T20:11:26.860Z,2.22
2022-11-16T20:13:55.711Z,1.50
2022-11-16T20:16:24.656Z,1.80
2022-11-16T20:18:52.650Z,1.08
2022-11-16T20:21:34.281Z,2.08
2022-11-16T20:24:06.457Z,1.50
2022-11-16T20:26:35.800Z,3.47
2022-11-16T20:29:03.534Z,1.30
2022-11-16T20:31:31.844Z,2.05
2022-11-16T20:34:01.023Z,2.35
2022-11-16T20:36:29.929Z,2.03
2022-11-16T20:38:58.430Z,1.73
2022-11-16T20:41:27.277Z,1.40
2022-11-16T20:43:57.503Z,1.67
2022-11-16T20:46:26.930Z,1.55
2022-11-16T20:48:54.839Z,1.52
2022-11-16T20:51:21.911Z,1.20
2022-11-16T20:53:50.264Z,1.50
2022-11-16T20:56:19.376Z,1.17
2022-11-16T20:58:47.483Z,1.80
2022-11-16T21:01:17.426Z,1.45
2022-11-16T21:03:44.913Z,1.67
2022-11-16T21:06:13.531Z,1.55
2022-11-16T21:08:41.523Z,2.05
2022-11-16T21:11:23.365Z,2.20
2022-11-16T21:14:08.734Z,2.03
2022-11-16T21:16:39.137Z,1.30
2022-11-16T21:19:06.679Z,1.63
2022-11-16T21:21:33.888Z,1.63
2022-11-16T21:24:01.323Z,1.52
2022-11-16T21:26:30.192Z,4.45
2022-11-16T21:28:58.042Z,2.27
2022-11-16T21:31:27.280Z,5.20
2022-11-16T21:33:54.814Z,4.80
2022-11-16T21:36:24.386Z,1.95
2022-11-16T21:38:52.370Z,1.30
2022-11-16T21:41:20.919Z,1.33
2022-11-16T21:43:47.913Z,1.63
2022-11-16T21:46:17.226Z,1.70
2022-11-16T21:48:45.087Z,1.77
2022-11-16T21:51:15.052Z,1.88
2022-11-16T21:53:41.991Z,1.80
2022-11-16T21:56:12.735Z,1.55
2022-11-16T21:58:40.679Z,1.52
2022-11-16T22:01:08.693Z,1.63
2022-11-16T22:03:35.836Z,1.60
2022-11-16T22:06:26.135Z,1.67
2022-11-16T22:08:53.115Z,1.63
2022-11-16T22:11:22.316Z,1.60
2022-11-16T22:13:50.236Z,2.00
2022-11-16T22:16:19.188Z,1.50
2022-11-16T22:18:46.188Z,2.50
2022-11-16T22:21:13.310Z,1.67
2022-11-16T22:23:40.697Z,1.60
2022-11-16T22:26:12.779Z,1.92
2022-11-16T22:28:39.947Z,1.77
2022-11-16T22:31:15.908Z,1.93
2022-11-16T22:33:42.836Z,1.70
2022-11-16T22:36:10.963Z,2.00
2022-11-16T22:38:38.165Z,1.80
2022-11-16T22:41:05.205Z,1.98
2022-11-16T22:43:32.864Z,2.00
2022-11-16T22:46:02.560Z,1.60
2022-11-16T22:48:34.295Z,1.42
2022-11-16T22:51:30.610Z,1.48
2022-11-16T22:54:03.291Z,1.95
2022-11-16T22:56:32.195Z,1.37
2022-11-16T22:59:01.333Z,1.63
2022-11-16T23:01:28.474Z,1.40
2022-11-16T23:03:56.397Z,1.67
2022-11-16T23:06:23.499Z,1.77
2022-11-16T23:08:50.817Z,1.90
2022-11-16T23:11:39.024Z,1.92
2022-11-16T23:14:26.620Z,1.55
2022-11-16T23:16:53.520Z,1.90
2022-11-16T23:19:40.275Z,1.48
2022-11-16T23:22:30.934Z,1.90
2022-11-16T23:25:16.479Z,2.20
2022-11-16T23:27:55.717Z,2.05
2022-11-16T23:30:23.246Z,1.90
2022-11-16T23:32:50.489Z,1.75
2022-11-16T23:35:17.814Z,1.77
2022-11-16T23:37:51.056Z,1.50
2022-11-16T23:40:18.278Z,1.90
2022-11-16T23:43:03.529Z,1.60
2022-11-16T23:45:30.262Z,1.67
2022-11-16T23:47:57.013Z,1.50
2022-11-16T23:50:24.095Z,1.67
2022-11-16T23:52:53.453Z,2.05
2022-11-16T23:55:20.469Z,1.90
2022-11-16T23:57:47.190Z,1.90
